Springboro, OH

1:42 AM EST on February 11, 2016 (GMT -0500)
Settlers Walk | | Change Station
CLOSE
Current Station
Personal Weather Station
Location: Springboro, OH
Elevation: 896 ft
Nearby Weather Stations

Elev 896 ft 39.57 °N, 84.22 °W | Updated 7 seconds ago

Partly Cloudy
Partly Cloudy
10.8 °F
Feels Like 11 °F
N
0.0
Wind Variable Wind from SW
Gusts 2.0 mph

Today
High -- | Low -- °F
--% Chance of Precip.
Yesterday
High -- | Low -- °F
Precip. -- in
Pressure 30.16 in
Visibility 10.0 miles
Clouds Few 3500 ft
Windchill 11 °F
Dew Point 6 °F
Humidity 82%
Rainfall 0.00 in
Snow Depth Not available.
7:34 AM 6:08 PM
Waxing Crescent, 10% visible
METAR KMGY 110553Z AUTO 26004KT 10SM FEW035 M11/M16 A3011 RMK AO2 SLP211 T11061161 11094 21106 51005
Pressure 30.16 in
Visibility 10.0 miles
Clouds Few 3500 ft
Windchill 11 °F
Dew Point 6 °F
Humidity 82%
Rainfall 0.00 in
Snow Depth Not available.
7:34 AM 6:08 PM
Waxing Crescent, 10% visible
METAR KMGY 110553Z AUTO 26004KT 10SM FEW035 M11/M16 A3011 RMK AO2 SLP211 T11061161 11094 21106 51005

10-Day Weather Forecast

Almanac

Astronomy

Feb. 11, 2016 Rise Set
Actual Time
Civil Twilight
Nautical Twilight
Astronomical Twilight
Moon
Length of Visible Light
Length of Day
Tomorrow will be .
, % of the Moon is Illuminated

Today's Extremes

State Highs State Lows

Community

WunderPhotos

Upload Photos

1,892,028 photos uploaded!

WunderBlog® & News

Nearby

Air Quality

  Air Quality AQ Index Pollutant
Not available.

Snow Depth

Station Depth Elevation

Earthquake Activity

City Distance Mag. Time & Date
Minimum magnitude displayed is 2.5.

Coastal Water Temperatures

Place Temperature

Stations

Nearby Weather Stations

Station Location Temp. Windchill Dew Point Humidity Wind Precip. Elev Updated Type
                   

Watches & Warnings

There are currently no watches in effect.